Time;durP1;ratioP1;P1;durP2;ratioP2;P2;SDS_P1;SDS_P2;PMS_P1;PMS_P2;Temp;Humidity;BMP_temperature;BMP_pressure;BME280_temperature;BME280_humidity;BME280_pressure;Samples;Min_cycle;Max_cycle;Signal;HPM_P1;HPM_P2
2022/03/24 00:00:29;;;;;;;17.13;14.97;;;3.60;98.30;;;4.51;64.52;99032.41;5186511;28;20329;-58
2022/03/24 00:03:03;;;;;;;16.80;15.10;;;3.60;98.80;;;4.55;65.02;99036.13;5183679;28;20304;-59
2022/03/24 00:05:36;;;;;;;15.93;14.37;;;3.60;99.20;;;4.56;64.46;99035.41;5184514;28;20211;-57
2022/03/24 00:08:09;;;;;;;16.33;14.60;;;3.60;99.20;;;4.49;65.33;99034.81;5187726;28;20559;-57
2022/03/24 00:10:42;;;;;;;16.40;14.60;;;3.60;99.30;;;4.52;65.34;99034.19;5185091;28;20225;-58
2022/03/24 00:13:15;;;;;;;15.70;14.10;;;3.60;99.40;;;4.65;63.92;99033.78;5185803;28;20205;-58
2022/03/24 00:15:50;;;;;;;16.50;14.80;;;3.50;99.10;;;4.72;63.66;99038.69;5184486;28;20212;-59
2022/03/24 00:18:23;;;;;;;15.17;13.53;;;3.40;99.20;;;4.67;63.92;99043.31;5186641;28;20223;-56
2022/03/24 00:20:56;;;;;;;16.97;15.17;;;3.40;99.30;;;4.55;64.06;99046.25;5181890;28;20220;-55
2022/03/24 00:23:29;;;;;;;18.33;16.43;;;3.40;99.40;;;4.45;64.86;99041.94;5186570;28;20314;-58
2022/03/24 00:26:03;;;;;;;16.53;14.93;;;3.40;99.60;;;4.43;65.11;99045.94;5183955;28;20573;-53
2022/03/24 00:28:36;;;;;;;16.30;14.70;;;3.40;99.70;;;4.34;65.08;99038.31;5185300;28;20199;-58
2022/03/24 00:31:10;;;;;;;17.20;15.50;;;3.40;99.60;;;4.24;64.99;99025.50;5187594;28;20203;-54
2022/03/24 00:33:43;;;;;;;16.73;15.13;;;3.30;99.60;;;4.23;64.87;99028.75;5184466;28;20570;-56
2022/03/24 00:36:16;;;;;;;16.97;15.10;;;3.30;99.80;;;4.20;65.51;99028.47;5184212;28;20199;-55
2022/03/24 00:38:52;;;;;;;16.70;15.10;;;3.30;99.60;;;4.11;65.36;99022.47;5184633;28;20707;-55
2022/03/24 00:41:28;;;;;;;17.50;15.73;;;3.20;99.70;;;4.11;65.46;99028.44;5189614;28;20688;-53
2022/03/24 00:44:02;;;;;;;17.20;15.27;;;3.20;99.40;;;4.04;65.81;99020.97;5182036;28;20758;-56
2022/03/24 00:46:37;;;;;;;16.43;14.93;;;3.20;99.60;;;4.05;65.41;99017.69;5193175;28;20203;-57
2022/03/24 00:49:10;;;;;;;17.10;15.40;;;3.20;99.50;;;4.01;65.75;99019.03;5185455;28;20230;-54
2022/03/24 00:51:44;;;;;;;17.03;15.33;;;3.20;99.80;;;4.00;65.75;99016.34;5184310;28;20551;-59
2022/03/24 00:54:18;;;;;;;17.00;15.40;;;3.20;99.90;;;4.03;66.28;99011.56;5184813;28;20201;-55
2022/03/24 00:56:51;;;;;;;18.63;16.73;;;3.20;99.90;;;4.04;65.66;99005.81;5189943;28;20206;-54
2022/03/24 00:59:24;;;;;;;17.37;15.57;;;3.20;99.80;;;4.04;66.25;99009.22;5186414;28;20817;-56
2022/03/24 01:01:59;;;;;;;18.13;16.33;;;3.30;99.80;;;4.09;66.20;99008.78;5184670;28;20564;-57
2022/03/24 01:04:32;;;;;;;17.60;15.80;;;3.30;99.90;;;4.10;66.28;99003.88;5187104;28;20222;-57
2022/03/24 01:07:05;;;;;;;16.50;14.90;;;3.40;99.70;;;4.17;66.47;99007.91;5184778;28;20215;-56
2022/03/24 01:09:38;;;;;;;17.20;15.40;;;3.40;99.80;;;4.19;66.21;99006.44;5183600;28;20221;-57
2022/03/24 01:12:13;;;;;;;17.17;15.50;;;3.40;99.70;;;4.17;65.71;99001.22;5183667;28;20234;-53
2022/03/24 01:14:46;;;;;;;17.37;15.63;;;3.30;99.90;;;4.12;65.91;98992.28;5183716;28;20190;-57
2022/03/24 01:17:21;;;;;;;17.07;15.37;;;3.20;99.90;;;4.01;66.51;98986.16;5185086;28;20191;-58
2022/03/24 01:19:54;;;;;;;16.07;14.47;;;3.10;99.90;;;4.01;65.83;98986.16;5178799;28;20614;-56
2022/03/24 01:22:28;;;;;;;16.83;14.80;;;3.10;99.90;;;3.95;66.31;98988.06;5184619;28;20199;-56
2022/03/24 01:25:00;;;;;;;16.87;15.17;;;3.10;99.90;;;3.89;66.85;98986.53;5184024;28;20202;-54
2022/03/24 01:27:34;;;;;;;18.83;15.20;;;3.00;99.90;;;3.83;67.89;98985.19;5186877;28;20378;-55
2022/03/24 01:30:09;;;;;;;16.13;14.53;;;3.00;99.90;;;3.84;67.04;98981.91;5186586;28;20309;-55
2022/03/24 01:32:47;;;;;;;16.07;14.47;;;3.00;99.90;;;3.78;67.45;98985.47;5184738;28;20198;-56
2022/03/24 01:35:20;;;;;;;16.10;14.50;;;2.90;99.90;;;3.53;67.36;98982.06;5183864;28;20194;-55
2022/03/24 01:37:53;;;;;;;17.10;14.93;;;2.60;99.90;;;3.56;67.34;98983.28;5175785;28;20210;-59
2022/03/24 01:40:26;;;;;;;16.77;14.63;;;2.60;99.90;;;3.49;68.45;98991.00;5179306;28;20287;-56
2022/03/24 01:43:00;;;;;;;17.27;15.43;;;2.60;99.90;;;3.45;67.87;98981.28;5184794;28;20659;-57
2022/03/24 01:45:34;;;;;;;16.93;15.20;;;2.60;99.90;;;3.46;67.29;98983.06;5184789;28;20686;-54
2022/03/24 01:48:09;;;;;;;17.80;16.00;;;2.60;99.90;;;3.49;67.72;98978.34;5184286;28;20210;-56
2022/03/24 01:50:42;;;;;;;18.13;16.43;;;2.60;99.90;;;3.44;68.17;98966.88;5184514;28;20210;-54
2022/03/24 01:53:17;;;;;;;19.03;17.13;;;2.60;99.90;;;3.45;68.43;98968.66;5184714;28;20199;-54
2022/03/24 01:55:51;;;;;;;19.67;17.53;;;2.70;99.90;;;3.38;68.23;98966.25;5182922;28;20208;-57
2022/03/24 01:58:24;;;;;;;18.23;16.17;;;2.60;99.90;;;3.37;67.08;98965.31;5183828;28;20587;-56
2022/03/24 02:01:27;;;;;;;19.77;17.10;;;2.50;99.90;;;3.41;67.92;98964.03;5184139;28;20233;-52
2022/03/24 02:04:04;;;;;;;20.90;18.40;;;2.50;99.90;;;3.36;68.36;98962.66;5183805;28;20249;-53
2022/03/24 02:06:38;;;;;;;19.60;17.63;;;2.60;99.90;;;3.34;69.01;98967.53;5183085;28;20194;-56
2022/03/24 02:09:13;;;;;;;20.50;18.33;;;2.60;99.90;;;3.32;68.53;98968.13;5184226;28;20758;-57
2022/03/24 02:11:46;;;;;;;20.60;18.43;;;2.50;99.90;;;3.35;68.69;98973.50;5184478;28;20239;-56
2022/03/24 02:14:19;;;;;;;22.00;18.67;;;2.60;99.90;;;3.28;68.82;98969.44;5182053;28;20598;-54
2022/03/24 02:16:52;;;;;;;19.90;17.87;;;2.50;99.90;;;3.23;68.98;98969.69;5183448;28;20194;-55
2022/03/24 02:19:28;;;;;;;20.87;17.73;;;2.50;99.90;;;3.23;69.86;98969.69;5185341;28;20242;-55
2022/03/24 02:22:11;;;;;;;20.73;18.33;;;2.50;99.90;;;3.27;68.84;98977.78;5181807;28;20201;-54
2022/03/24 02:24:45;;;;;;;20.23;18.03;;;2.50;99.90;;;3.24;69.44;98971.50;5185174;28;20228;-54
2022/03/24 02:27:18;;;;;;;20.47;18.27;;;2.50;99.90;;;3.26;69.64;98970.94;5187035;28;20220;-54
2022/03/24 02:29:52;;;;;;;22.73;18.70;;;2.50;99.90;;;3.29;69.90;98965.28;5183243;28;20219;-55
2022/03/24 02:32:26;;;;;;;20.37;18.07;;;2.50;99.90;;;3.37;70.06;98974.53;5187487;28;20204;-53
2022/03/24 02:34:59;;;;;;;19.70;17.63;;;2.60;99.90;;;3.38;70.00;98971.31;5183746;28;20633;-55
2022/03/24 02:37:34;;;;;;;19.97;17.53;;;2.60;99.90;;;3.36;70.08;98973.66;5188804;28;20208;-54
2022/03/24 02:40:09;;;;;;;19.63;17.63;;;2.60;99.90;;;3.45;69.20;98976.22;5181223;28;20226;-55
2022/03/24 02:42:42;;;;;;;19.43;17.47;;;2.50;99.90;;;3.50;69.51;98980.13;5188971;28;20204;-55
2022/03/24 02:45:15;;;;;;;18.63;16.73;;;2.40;99.90;;;3.46;69.95;98975.47;5178868;28;20231;-55
2022/03/24 02:47:49;;;;;;;20.07;17.50;;;2.40;99.90;;;3.42;69.40;98978.44;5182378;28;20226;-54
2022/03/24 02:50:23;;;;;;;19.67;17.67;;;2.30;99.90;;;3.44;69.96;98982.03;5178967;28;20309;-55
2022/03/24 02:53:01;;;;;;;20.13;18.00;;;2.30;99.90;;;3.39;70.25;98976.50;5184039;28;20209;-55
2022/03/24 02:55:34;;;;;;;20.07;18.07;;;2.30;99.90;;;3.35;70.81;98978.56;5182038;28;20225;-55
2022/03/24 02:58:07;;;;;;;20.50;18.27;;;2.20;99.90;;;3.25;70.89;98985.91;5181470;28;20198;-55
2022/03/24 03:00:40;;;;;;;21.40;19.10;;;2.20;99.90;;;3.20;71.48;98982.91;5180255;28;20234;-59
2022/03/24 03:03:13;;;;;;;21.17;18.60;;;2.20;99.90;;;3.09;71.53;98984.34;5179189;28;20202;-58
2022/03/24 03:05:47;;;;;;;19.90;17.83;;;2.10;99.90;;;2.91;71.84;98977.38;5181272;28;20679;-53
2022/03/24 03:08:21;;;;;;;21.63;19.53;;;2.00;99.90;;;2.84;71.71;98982.53;5182652;28;20202;-57
2022/03/24 03:10:56;;;;;;;19.90;17.73;;;2.00;99.90;;;2.73;72.17;98975.44;5181672;28;20201;-53
2022/03/24 03:13:29;;;;;;;19.97;17.23;;;1.90;99.90;;;2.68;71.83;98985.94;5180664;28;20198;-55
2022/03/24 03:16:02;;;;;;;19.03;17.17;;;1.80;99.90;;;2.67;71.99;98975.69;5183028;28;20196;-57
2022/03/24 03:18:35;;;;;;;20.27;18.17;;;1.80;99.90;;;2.55;71.58;98975.31;5185334;28;20305;-55
2022/03/24 03:21:09;;;;;;;19.73;17.30;;;1.80;99.90;;;2.46;71.58;98974.31;5184808;28;20208;-57
2022/03/24 03:23:45;;;;;;;19.87;17.63;;;1.70;99.90;;;2.43;71.73;98973.97;5182362;28;20587;-58
2022/03/24 03:26:19;;;;;;;18.83;16.83;;;1.60;99.90;;;2.35;71.98;98973.19;5187298;28;20213;-55
2022/03/24 03:28:52;;;;;;;18.70;16.70;;;1.60;99.90;;;2.41;71.02;98978.00;5182382;28;20216;-57
2022/03/24 03:31:25;;;;;;;19.77;16.50;;;1.60;99.90;;;2.43;70.81;98976.50;5180996;28;20203;-53
2022/03/24 03:33:59;;;;;;;17.73;15.93;;;1.70;99.90;;;2.35;71.08;98977.34;5185978;28;20254;-55
2022/03/24 03:36:35;;;;;;;17.07;15.30;;;1.60;99.90;;;2.47;72.35;98983.69;5179949;28;20367;-54
2022/03/24 03:39:10;;;;;;;18.13;15.83;;;1.70;99.90;;;2.58;72.10;98987.34;5180749;28;20707;-55
2022/03/24 03:41:43;;;;;;;19.23;17.33;;;1.80;99.90;;;2.57;71.91;98986.44;5179158;28;20575;-56
2022/03/24 03:44:16;;;;;;;18.37;16.47;;;1.80;99.90;;;2.67;72.24;98988.31;5186791;28;20216;-56
2022/03/24 03:46:49;;;;;;;18.60;16.73;;;1.80;99.90;;;2.68;71.08;98983.41;5184044;28;20227;-56
2022/03/24 03:49:22;;;;;;;18.33;16.47;;;1.80;99.90;;;2.63;71.25;98987.09;5180704;28;20229;-57
2022/03/24 03:52:15;;;;;;;18.70;16.67;;;1.80;99.90;;;2.68;70.58;98985.06;5181886;28;20229;-56
2022/03/24 03:54:50;;;;;;;17.57;15.77;;;1.70;99.90;;;2.63;71.03;98984.59;5187808;28;20196;-56
2022/03/24 03:57:23;;;;;;;18.47;16.40;;;1.70;99.90;;;2.57;71.67;98988.94;5189009;28;20293;-56
2022/03/24 03:59:56;;;;;;;18.40;16.53;;;1.60;99.90;;;2.57;71.58;98986.44;5188951;28;20315;-58
2022/03/24 04:02:29;;;;;;;18.73;16.73;;;1.60;99.90;;;2.53;71.38;98993.53;5186952;28;20660;-58
2022/03/24 04:05:04;;;;;;;19.20;17.13;;;1.60;99.90;;;2.48;71.38;98986.34;5182612;28;20225;-53
2022/03/24 04:07:38;;;;;;;18.77;16.97;;;1.60;99.90;;;2.41;71.19;98988.97;5181163;28;20197;-57
2022/03/24 04:10:12;;;;;;;19.80;16.77;;;1.60;99.90;;;2.34;71.52;98988.16;5181843;28;20233;-53
2022/03/24 04:12:46;;;;;;;18.70;16.70;;;1.50;99.90;;;2.31;71.89;98985.28;5179957;28;20393;-54
2022/03/24 04:15:19;;;;;;;17.90;16.03;;;1.50;99.90;;;2.35;71.67;98982.38;5181470;28;20204;-53
2022/03/24 04:17:53;;;;;;;17.87;16.13;;;1.60;99.90;;;2.36;71.80;98976.59;5181870;28;20228;-56
2022/03/24 04:20:26;;;;;;;19.60;16.73;;;1.50;99.90;;;2.35;71.39;98982.38;5182515;28;20710;-54
2022/03/24 04:23:02;;;;;;;18.90;16.90;;;1.50;99.90;;;2.28;71.59;98984.97;5182180;28;20226;-55
2022/03/24 04:25:37;;;;;;;19.03;16.93;;;1.40;99.90;;;2.23;71.55;98982.88;5186321;28;20322;-53
2022/03/24 04:28:11;;;;;;;17.63;15.73;;;1.40;99.90;;;2.24;71.16;98987.16;5184271;28;20207;-53
2022/03/24 04:30:44;;;;;;;21.40;19.00;;;1.40;99.90;;;2.08;71.69;98982.84;5182552;28;20223;-53
2022/03/24 04:33:17;;;;;;;19.47;17.43;;;1.30;99.90;;;2.02;71.47;98991.53;5181431;28;20301;-56
2022/03/24 04:35:50;;;;;;;20.37;17.87;;;1.20;99.90;;;2.04;72.21;98986.66;5175926;28;20195;-52
2022/03/24 04:38:23;;;;;;;23.60;17.77;;;1.30;99.90;;;2.09;73.02;98993.09;5181506;28;21992;-53
2022/03/24 04:40:58;;;;;;;20.27;17.60;;;1.40;99.90;;;2.18;73.34;98991.56;5179778;28;20691;-52
2022/03/24 04:43:31;;;;;;;19.17;16.93;;;1.40;99.90;;;2.22;73.05;98987.72;5180471;28;20668;-52
2022/03/24 04:46:05;;;;;;;21.03;18.27;;;1.40;99.90;;;2.19;73.93;98989.94;5180326;28;20207;-53
2022/03/24 04:48:39;;;;;;;19.53;17.37;;;1.50;99.90;;;2.17;72.81;98993.91;5179136;28;20314;-53
2022/03/24 04:51:12;;;;;;;22.37;18.50;;;1.40;99.90;;;2.10;73.32;98988.94;5186136;28;20210;-57
2022/03/24 04:53:46;;;;;;;20.73;18.43;;;1.30;99.90;;;2.08;73.43;98988.75;5183807;28;20663;-55
2022/03/24 04:56:20;;;;;;;20.50;18.17;;;1.30;99.90;;;2.05;72.49;99000.16;5184536;28;20211;-58
2022/03/24 04:58:53;;;;;;;20.13;17.50;;;1.30;99.90;;;2.14;72.59;98993.56;5184062;28;20236;-56
2022/03/24 05:01:26;;;;;;;22.43;17.93;;;1.30;99.90;;;2.12;72.77;98998.47;5184883;28;20215;-54
2022/03/24 05:04:00;;;;;;;23.33;18.33;;;1.30;99.90;;;2.05;72.47;98996.00;5186598;28;20223;-56
2022/03/24 05:06:33;;;;;;;20.37;18.23;;;1.30;99.90;;;2.12;72.85;98998.47;5186266;28;20215;-54
2022/03/24 05:09:06;;;;;;;20.70;18.47;;;1.30;99.90;;;2.08;73.33;98996.34;5186370;28;20226;-54
2022/03/24 05:11:40;;;;;;;20.43;18.20;;;1.30;99.90;;;2.09;72.73;99003.19;5183884;28;20578;-53
2022/03/24 05:14:15;;;;;;;21.77;18.33;;;1.30;99.90;;;2.16;72.69;99000.56;5182600;28;20207;-54
2022/03/24 05:16:48;;;;;;;19.83;17.80;;;1.30;99.90;;;2.19;72.18;99003.44;5187466;28;20198;-53
2022/03/24 05:19:21;;;;;;;20.23;18.13;;;1.30;99.90;;;2.17;72.81;99007.41;5182612;28;20239;-57
2022/03/24 05:21:55;;;;;;;19.83;17.80;;;1.30;99.90;;;2.17;72.37;99001.47;5184926;28;20213;-57
2022/03/24 05:24:28;;;;;;;21.50;17.77;;;1.30;99.90;;;2.13;72.78;99004.41;5184452;28;20215;-57
2022/03/24 05:27:03;;;;;;;21.47;18.40;;;1.20;99.90;;;2.13;72.80;99005.28;5180174;28;20227;-54
2022/03/24 05:29:36;;;;;;;21.50;18.83;;;1.20;99.90;;;2.18;73.02;99008.31;5183211;28;20227;-55
2022/03/24 05:32:10;;;;;;;22.17;18.10;;;1.30;99.90;;;2.12;72.67;99013.59;5179935;28;20647;-55
2022/03/24 05:34:44;;;;;;;22.27;18.63;;;1.30;99.90;;;2.13;72.68;99007.81;5184321;28;20207;-57
2022/03/24 05:37:17;;;;;;;19.90;17.80;;;1.30;99.90;;;2.15;72.51;99020.59;5191572;28;20704;-57
2022/03/24 05:39:50;;;;;;;21.33;17.30;;;1.30;99.90;;;2.16;71.82;99018.22;5180596;28;20243;-57
2022/03/24 05:42:26;;;;;;;21.40;18.70;;;1.20;99.90;;;2.07;71.04;99018.88;5187056;28;20209;-57
2022/03/24 05:44:59;;;;;;;19.40;17.43;;;1.20;99.90;;;1.98;71.33;99021.28;5181937;28;20202;-56
2022/03/24 05:47:32;;;;;;;20.43;18.00;;;1.20;99.90;;;2.09;71.90;99018.31;5192868;28;20204;-57
2022/03/24 05:50:06;;;;;;;20.20;17.93;;;1.30;99.90;;;2.10;72.92;99021.72;5187142;28;20710;-53
2022/03/24 05:52:40;;;;;;;19.60;17.60;;;1.30;99.90;;;2.11;72.26;99014.31;5194699;28;20199;-53
2022/03/24 05:55:13;;;;;;;19.07;16.97;;;1.40;99.90;;;2.25;72.23;99011.66;5187645;28;20212;-53
2022/03/24 05:57:48;;;;;;;20.20;18.07;;;1.50;99.90;;;2.27;73.52;99010.94;5188106;28;20203;-56
2022/03/24 06:00:23;;;;;;;22.43;19.30;;;1.50;99.90;;;2.43;72.14;99016.88;5189514;28;20597;-55
2022/03/24 06:02:56;;;;;;;19.50;17.53;;;1.60;99.90;;;2.68;70.95;99018.75;5186149;28;20217;-57
2022/03/24 06:05:29;;;;;;;21.17;18.93;;;1.70;99.90;;;2.74;71.05;99007.53;5186032;28;20319;-56
2022/03/24 06:08:03;;;;;;;21.13;18.93;;;1.90;99.90;;;2.87;71.09;99023.22;5186829;28;20201;-56
2022/03/24 06:10:36;;;;;;;21.60;19.10;;;2.00;99.90;;;3.02;70.89;99019.78;5187375;28;20224;-57
2022/03/24 06:13:11;;;;;;;20.47;17.97;;;2.10;99.90;;;3.15;70.15;99022.88;5183146;28;20672;-56
2022/03/24 06:15:45;;;;;;;21.27;19.00;;;2.30;99.90;;;3.22;70.70;99031.97;5180626;28;20197;-57
2022/03/24 06:18:19;;;;;;;21.03;18.93;;;2.40;99.90;;;3.28;70.24;99024.13;5182901;28;20209;-55
2022/03/24 06:20:55;;;;;;;20.80;18.67;;;2.40;99.90;;;3.41;69.40;99029.72;5180114;28;20209;-57
2022/03/24 06:23:28;;;;;;;21.77;18.87;;;2.50;99.90;;;3.54;69.74;99032.75;5186062;28;20202;-57
2022/03/24 06:26:03;;;;;;;21.27;18.33;;;2.70;99.90;;;3.74;69.13;99028.88;5184650;28;20572;-56
2022/03/24 06:28:37;;;;;;;20.73;18.23;;;2.80;99.90;;;4.10;67.87;99025.75;5183813;28;20198;-57
2022/03/24 06:31:11;;;;;;;19.30;17.40;;;3.00;99.90;;;4.40;65.96;99026.28;5184726;28;20202;-59
2022/03/24 06:33:44;;;;;;;19.80;17.80;;;3.10;99.90;;;4.65;64.85;99032.13;5187511;28;20195;-58
2022/03/24 06:36:17;;;;;;;20.87;18.73;;;3.30;99.90;;;4.83;63.77;99024.56;5183224;28;20549;-58
2022/03/24 06:38:50;;;;;;;21.40;19.10;;;3.40;99.90;;;4.96;64.15;99027.56;5186151;28;20219;-58
2022/03/24 06:41:24;;;;;;;21.63;19.27;;;3.50;99.90;;;5.20;62.07;99021.44;5190514;28;20562;-57
2022/03/24 06:43:59;;;;;;;21.03;18.87;;;3.80;99.90;;;5.43;62.52;99027.06;5192171;28;20198;-57
2022/03/24 06:46:33;;;;;;;21.63;19.23;;;3.90;99.90;;;5.43;61.90;99018.56;5190555;28;20277;-55
2022/03/24 06:49:07;;;;;;;21.43;19.37;;;4.20;99.80;;;5.93;61.61;99019.03;5192748;28;20219;-54
2022/03/24 06:51:40;;;;;;;23.43;20.50;;;4.50;99.60;;;6.40;58.82;99012.41;5192531;28;20210;-56
2022/03/24 06:54:14;;;;;;;22.20;19.60;;;4.90;98.60;;;6.75;58.37;99015.63;5182508;28;20202;-54
2022/03/24 06:56:49;;;;;;;22.37;20.07;;;5.00;98.10;;;7.09;57.66;99021.19;5201810;28;20568;-57
2022/03/24 06:59:23;;;;;;;22.07;19.77;;;5.40;97.70;;;7.19;55.78;99018.72;5192470;28;20230;-55
2022/03/24 07:01:56;;;;;;;21.40;19.10;;;5.40;97.00;;;7.52;55.27;99020.78;5184343;28;20204;-58
2022/03/24 07:04:30;;;;;;;21.93;19.77;;;5.60;96.80;;;8.10;53.15;99012.22;5186143;28;20255;-57
2022/03/24 07:07:04;;;;;;;23.20;20.07;;;6.00;96.30;;;8.41;52.37;99027.56;5181880;28;20233;-55
2022/03/24 07:09:37;;;;;;;24.43;20.60;;;6.20;95.90;;;8.55;51.33;99021.97;5185807;28;20789;-53
2022/03/24 07:12:11;;;;;;;25.50;21.47;;;6.50;94.40;;;8.63;51.97;99020.06;5187785;28;20202;-58
2022/03/24 07:14:45;;;;;;;28.97;26.00;;;6.80;94.90;;;8.88;50.61;99023.88;5185177;28;20202;-58
2022/03/24 07:17:19;;;;;;;29.30;26.50;;;7.00;93.60;;;8.84;50.60;99023.50;5184058;28;20198;-58
2022/03/24 07:19:52;;;;;;;25.40;22.67;;;7.20;93.40;;;8.75;50.56;99016.84;5184591;28;20594;-58
2022/03/24 07:22:25;;;;;;;25.90;23.20;;;7.10;92.90;;;8.77;50.84;99019.56;5187638;28;20218;-58
2022/03/24 07:24:58;;;;;;;24.90;22.40;;;7.30;92.70;;;9.05;50.81;99017.63;5187943;28;20596;-58
2022/03/24 07:27:31;;;;;;;24.37;21.80;;;7.80;92.60;;;9.24;51.04;99009.78;5186970;28;20265;-57
2022/03/24 07:30:10;;;;;;;24.10;21.70;;;8.10;92.40;;;9.54;51.07;99016.47;5193192;28;20221;-55
2022/03/24 07:32:44;;;;;;;25.17;22.50;;;8.30;92.50;;;9.75;49.89;99009.59;5189831;28;20224;-59
2022/03/24 07:35:19;;;;;;;25.87;22.07;;;8.40;91.90;;;9.98;48.96;99015.63;5193862;28;20190;-57
2022/03/24 07:37:53;;;;;;;24.77;22.07;;;8.70;91.50;;;9.99;49.25;99015.75;5191251;28;20198;-58
2022/03/24 07:40:28;;;;;;;24.87;22.23;;;8.80;91.30;;;9.85;49.14;99017.22;5190040;28;20225;-58
2022/03/24 07:43:01;;;;;;;23.60;21.17;;;8.70;91.30;;;10.27;48.59;99020.44;5186834;28;20211;-58
2022/03/24 07:45:38;;;;;;;24.33;21.93;;;9.10;90.60;;;10.18;47.08;99010.38;5186187;28;20217;-58
2022/03/24 07:48:16;;;;;;;25.50;23.00;;;9.10;89.50;;;10.45;47.95;99010.78;5181910;28;20268;-58
2022/03/24 07:50:50;;;;;;;25.00;22.40;;;9.30;90.20;;;10.63;47.25;99006.16;5196428;28;20887;-60
2022/03/24 07:53:56;;;;;;;24.87;21.57;;;9.50;89.90;;;10.89;46.89;99005.53;5188962;28;20598;-57
2022/03/24 07:56:30;;;;;;;22.73;20.43;;;9.80;88.60;;;11.07;45.68;99004.31;5153087;28;20284;-57
2022/03/24 07:59:04;;;;;;;22.63;20.33;;;10.10;87.50;;;11.18;45.91;99018.78;5192244;28;20697;-57
2022/03/24 08:01:39;;;;;;;24.87;22.37;;;10.10;86.70;;;11.12;45.46;99008.13;5202656;28;20654;-59
2022/03/24 08:04:12;;;;;;;24.83;22.33;;;10.10;86.10;;;11.40;44.28;99013.56;5198350;28;20198;-57
2022/03/24 08:06:45;;;;;;;22.37;20.07;;;10.40;85.70;;;11.56;44.76;99005.34;5190383;28;20725;-57
2022/03/24 08:09:19;;;;;;;23.07;20.87;;;10.60;85.60;;;11.91;43.58;99007.00;5191791;28;20226;-55
2022/03/24 08:11:52;;;;;;;23.40;21.00;;;11.10;83.50;;;12.15;43.88;99010.34;5183361;28;20217;-56
2022/03/24 08:14:25;;;;;;;24.40;22.00;;;11.40;83.30;;;12.22;43.67;99011.66;5183811;28;20610;-58
2022/03/24 08:16:59;;;;;;;23.77;21.40;;;11.40;82.90;;;12.35;44.01;99004.03;5183536;28;20701;-57
2022/03/24 08:19:34;;;;;;;23.37;20.97;;;11.40;83.70;;;12.68;42.96;99005.44;5183362;28;20309;-57
2022/03/24 08:22:07;;;;;;;22.80;20.60;;;11.80;82.00;;;12.74;42.59;99003.28;5184538;28;20200;-58
2022/03/24 08:24:40;;;;;;;23.67;21.30;;;12.00;81.80;;;12.72;42.98;99002.28;5186201;28;20230;-58
2022/03/24 08:27:13;;;;;;;23.05;20.80;;;11.80;81.50;;;12.94;42.50;99004.63;5188049;28;20732;-58
2022/03/24 08:29:46;;;;;;;23.83;21.42;;;12.10;82.20;;;13.12;42.40;98999.81;5189535;28;20222;-56
2022/03/24 08:32:20;;;;;;;24.90;22.27;;;12.30;81.40;;;13.33;43.05;98995.19;5189835;28;20198;-58
2022/03/24 08:34:53;;;;;;;24.08;21.60;;;12.50;81.50;;;13.57;42.18;98992.44;5189867;28;20198;-56
2022/03/24 08:37:26;;;;;;;24.75;22.35;;;12.70;81.40;;;13.69;41.58;98999.22;5190726;28;20194;-58
2022/03/24 08:39:59;;;;;;;22.80;20.55;;;12.90;80.30;;;13.93;41.44;98997.28;5191612;28;20230;-58
2022/03/24 08:42:33;;;;;;;24.30;21.80;;;13.30;79.60;;;14.19;41.25;98995.44;5188586;28;20651;-57
2022/03/24 08:45:09;;;;;;;22.88;20.58;;;13.40;79.60;;;14.47;40.33;98991.97;5193323;28;20580;-58
2022/03/24 08:47:43;;;;;;;23.48;21.08;;;13.70;78.70;;;14.60;40.71;98984.25;5191477;28;20225;-58
2022/03/24 08:50:17;;;;;;;25.13;22.67;;;13.90;78.40;;;14.90;39.65;98994.56;5186615;28;20272;-55
2022/03/24 08:52:51;;;;;;;23.77;21.42;;;14.20;76.80;;;15.04;39.21;98986.81;5193024;28;20203;-59
2022/03/24 08:55:24;;;;;;;24.88;22.27;;;14.40;76.30;;;15.11;39.51;98985.50;5193534;28;20199;-57
2022/03/24 08:57:57;;;;;;;24.08;21.67;;;14.50;76.00;;;15.39;38.84;98992.22;5190711;28;20685;-56
2022/03/24 09:00:30;;;;;;;24.95;22.45;;;14.60;75.70;;;15.40;38.57;98989.72;5192222;28;20214;-58
2022/03/24 09:03:05;;;;;;;24.35;21.85;;;14.60;75.80;;;15.46;38.24;98984.91;5194366;28;20198;-58
2022/03/24 09:05:38;;;;;;;23.23;20.90;;;14.70;74.90;;;15.58;37.74;98992.44;5193551;28;20244;-58
2022/03/24 09:08:12;;;;;;;23.42;21.00;;;14.90;73.60;;;15.78;37.42;98988.41;5191259;28;20227;-56
2022/03/24 09:10:47;;;;;;;23.75;21.35;;;15.10;73.10;;;15.83;36.74;98988.69;5193043;28;20223;-60
2022/03/24 09:13:20;;;;;;;23.75;21.27;;;15.20;72.10;;;16.10;36.87;98995.31;5196982;28;20546;-57
2022/03/24 09:15:53;;;;;;;23.88;21.58;;;15.30;72.70;;;16.28;36.46;98986.78;5194082;28;20205;-57
2022/03/24 09:18:28;;;;;;;23.52;21.08;;;15.60;71.90;;;16.21;36.77;98986.44;5191592;28;20286;-56
2022/03/24 09:21:01;;;;;;;23.00;20.73;;;15.60;72.20;;;16.49;36.01;98993.06;5196733;28;20198;-58
2022/03/24 09:23:34;;;;;;;23.70;21.30;;;15.80;71.10;;;16.73;35.46;98984.81;5193949;28;20230;-58
2022/03/24 09:26:08;;;;;;;23.30;21.00;;;16.10;69.60;;;16.84;34.03;98982.00;5198015;28;20202;-55
2022/03/24 09:29:01;;;;;;;23.95;21.52;;;16.20;67.10;;;16.74;31.91;98984.00;5196550;28;20223;-56
2022/03/24 09:31:35;;;;;;;22.92;20.70;;;16.20;63.70;;;16.46;30.67;98985.19;5188075;28;20214;-58
2022/03/24 09:34:10;;;;;;;23.02;20.88;;;16.00;61.50;;;16.64;30.75;98988.69;5196539;28;20284;-57
2022/03/24 09:36:43;;;;;;;22.38;20.13;;;15.90;62.10;;;16.81;32.51;98983.53;5187442;28;20205;-60
2022/03/24 09:39:16;;;;;;;23.50;21.13;;;16.10;65.10;;;17.15;32.62;98977.47;5195457;28;20701;-56
2022/03/24 09:41:49;;;;;;;21.60;19.65;;;16.60;64.10;;;17.34;30.48;98975.00;5193848;28;20206;-56
2022/03/24 09:44:24;;;;;;;22.15;19.38;;;16.80;60.30;;;17.61;30.89;98982.28;5199017;28;20194;-59
2022/03/24 09:46:58;;;;;;;23.75;21.55;;;16.90;60.90;;;17.71;30.66;98979.31;5193421;28;20204;-55
2022/03/24 09:49:34;;;;;;;23.02;20.70;;;17.00;62.40;;;17.85;31.61;98973.09;5195200;28;20217;-59
2022/03/24 09:52:08;;;;;;;22.20;20.00;;;17.00;62.60;;;17.82;29.08;98979.84;5186731;28;20204;-56
2022/03/24 09:54:43;;;;;;;21.80;19.63;;;17.00;59.00;;;17.91;29.24;98976.00;5187234;28;20209;-55
2022/03/24 09:57:16;;;;;;;22.95;20.90;;;17.10;58.50;;;18.03;29.48;98965.31;5188270;28;20210;-57
2022/03/24 09:59:49;;;;;;;23.45;21.15;;;17.20;60.00;;;18.07;30.57;98966.34;5188830;28;20253;-57
2022/03/24 10:02:22;;;;;;;24.33;21.83;;;17.40;61.20;;;18.06;30.37;98964.56;5204005;28;20205;-55
2022/03/24 10:05:01;;;;;;;22.73;20.48;;;17.30;60.40;;;18.05;30.70;98962.78;5201060;28;20209;-56
2022/03/24 10:07:44;;;;;;;23.85;21.50;;;17.40;61.60;;;18.19;30.56;98967.75;5192431;28;20206;-55
2022/03/24 10:10:27;;;;;;;23.88;21.50;;;17.50;61.20;;;18.34;30.66;98967.59;5182759;28;20213;-56
2022/03/24 10:13:01;;;;;;;26.17;21.90;;;17.70;60.90;;;18.34;30.00;98962.41;5179368;28;20202;-54
2022/03/24 10:15:39;;;;;;;23.10;20.92;;;17.60;59.80;;;18.43;29.26;98957.63;5182329;28;20293;-57
2022/03/24 10:18:17;;;;;;;23.15;20.92;;;17.70;59.00;;;18.51;28.58;98949.28;5192948;28;20206;-57
2022/03/24 10:20:52;;;;;;;23.02;20.63;;;17.90;58.20;;;18.51;28.76;98951.88;5185024;28;20206;-57
2022/03/24 10:23:25;;;;;;;21.98;19.70;;;17.80;58.00;;;18.77;28.15;98943.56;5179332;28;20202;-56
2022/03/24 10:26:05;;;;;;;21.58;19.45;;;18.10;57.50;;;18.69;27.91;98940.63;5186660;28;20205;-57
2022/03/24 10:28:38;;;;;;;21.30;19.40;;;18.10;57.10;;;18.65;28.18;98940.41;5186050;28;20218;-57
2022/03/24 10:31:11;;;;;;;20.38;18.35;;;18.10;57.40;;;18.74;27.14;98942.53;5188018;28;20210;-56
2022/03/24 10:33:48;;;;;;;20.80;18.77;;;18.20;55.40;;;18.90;26.06;98935.47;5188850;28;20293;-56
2022/03/24 10:36:23;;;;;;;20.33;18.40;;;18.40;54.40;;;18.90;25.72;98930.28;5186417;28;20202;-56
2022/03/24 10:39:04;;;;;;;19.23;17.35;;;18.40;54.20;;;18.76;25.71;98931.41;5188445;28;20664;-56
2022/03/24 10:41:39;;;;;;;20.55;18.65;;;18.20;54.10;;;18.77;27.38;98929.72;5184088;28;20564;-55
2022/03/24 10:44:13;;;;;;;20.40;18.45;;;18.20;56.30;;;18.97;28.19;98930.53;5190974;28;20208;-57